Time;durP1;ratioP1;P1;durP2;ratioP2;P2;SDS_P1;SDS_P2;PMS_P1;PMS_P2;Temp;Humidity;BMP_temperature;BMP_pressure;BME280_temperature;BME280_humidity;BME280_pressure;Samples;Min_cycle;Max_cycle;Signal;HPM_P1;HPM_P2
2022/06/04 00:00:30;;;;;;;0.43;0.43;;;11.70;99.90;;;;;;5073097;28;20015;-74
2022/06/04 00:02:56;;;;;;;2.53;1.45;;;11.70;99.90;;;;;;5072990;28;20044;-75
2022/06/04 00:05:25;;;;;;;0.40;0.40;;;11.70;99.90;;;;;;5076304;28;20102;-74
2022/06/04 00:07:51;;;;;;;0.40;0.40;;;11.70;99.90;;;;;;5076486;28;20045;-77
2022/06/04 00:15:51;;;;;;;0.30;0.30;;;11.60;99.90;;;;;;5076376;28;20052;-75
2022/06/04 00:18:18;;;;;;;0.40;0.40;;;11.50;99.90;;;;;;5076454;28;20090;-76
2022/06/04 00:20:45;;;;;;;0.75;0.60;;;11.50;99.90;;;;;;5076266;28;20041;-72
2022/06/04 00:23:11;;;;;;;0.40;0.40;;;11.60;99.90;;;;;;5076527;28;20175;-73
2022/06/04 00:25:40;;;;;;;0.50;0.50;;;11.60;99.90;;;;;;5076291;28;20045;-76
2022/06/04 00:28:08;;;;;;;0.40;0.40;;;11.50;99.90;;;;;;5076187;28;20048;-75
2022/06/04 00:30:34;;;;;;;2.38;1.60;;;11.50;99.90;;;;;;5076132;28;20463;-76
2022/06/04 00:33:00;;;;;;;0.90;0.90;;;11.40;99.90;;;;;;5075043;28;20086;-74
2022/06/04 00:35:26;;;;;;;0.50;0.50;;;11.40;99.90;;;;;;5075958;28;20411;-77
2022/06/04 00:37:52;;;;;;;0.50;0.50;;;11.40;99.90;;;;;;5075702;28;20503;-76
2022/06/04 00:40:44;;;;;;;0.40;0.40;;;11.40;99.90;;;;;;5076038;28;20062;-77
2022/06/04 00:43:10;;;;;;;0.40;0.40;;;11.40;99.90;;;;;;5067484;28;20092;-72
2022/06/04 00:45:35;;;;;;;0.30;0.30;;;11.30;99.90;;;;;;5075843;28;20040;-75
2022/06/04 00:48:05;;;;;;;0.40;0.40;;;11.30;99.90;;;;;;5075820;28;20094;-76
2022/06/04 00:50:33;;;;;;;0.40;0.40;;;11.30;99.90;;;;;;5075850;28;20044;-71
2022/06/04 00:53:02;;;;;;;0.40;0.40;;;11.30;99.90;;;;;;5075594;28;20118;-75
2022/06/04 00:55:40;;;;;;;0.40;0.40;;;11.20;99.90;;;;;;5075673;28;20037;-74
2022/06/04 00:58:08;;;;;;;0.40;0.40;;;11.20;99.90;;;;;;5075446;28;20591;-74
2022/06/04 01:01:10;;;;;;;0.40;0.40;;;11.10;99.90;;;;;;5075788;28;20056;-74
2022/06/04 01:03:47;;;;;;;0.40;0.40;;;11.10;99.90;;;;;;5075460;28;20037;-76
2022/06/04 01:06:31;;;;;;;0.43;0.43;;;11.10;99.90;;;;;;5075890;28;20044;-74
2022/06/04 01:08:59;;;;;;;0.40;0.40;;;11.10;99.90;;;;;;5075562;28;20427;-74
2022/06/04 01:14:39;;;;;;;0.50;0.50;;;11.10;99.90;;;;;;5074896;28;20044;-72
2022/06/04 01:17:19;;;;;;;0.40;0.40;;;11.00;99.90;;;;;;5074675;28;20090;-75
2022/06/04 01:19:52;;;;;;;0.65;0.65;;;11.00;99.90;;;;;;5075319;28;20099;-74
2022/06/04 01:22:18;;;;;;;0.40;0.40;;;11.00;99.90;;;;;;5075003;28;20136;-74
2022/06/04 01:25:00;;;;;;;0.65;0.65;;;11.00;99.90;;;;;;5075008;28;20127;-73
2022/06/04 01:27:53;;;;;;;0.40;0.40;;;10.90;99.90;;;;;;5075313;28;20071;-73
2022/06/04 01:30:23;;;;;;;0.40;0.40;;;10.90;99.90;;;;;;5075140;28;20048;-74
2022/06/04 01:33:18;;;;;;;1.23;1.13;;;10.90;99.90;;;;;;5074545;28;20051;-75
2022/06/04 01:35:50;;;;;;;1.88;1.48;;;10.80;99.90;;;;;;5075038;28;20557;-76
2022/06/04 01:38:34;;;;;;;0.40;0.40;;;11.00;99.90;;;;;;5074586;28;20083;-75
2022/06/04 01:41:07;;;;;;;0.50;0.50;;;10.80;99.90;;;;;;5074842;28;20059;-73
2022/06/04 01:43:47;;;;;;;0.52;0.52;;;10.80;99.90;;;;;;5074982;28;20080;-75
2022/06/04 01:46:31;;;;;;;0.40;0.40;;;10.80;99.90;;;;;;5074816;28;20100;-74
2022/06/04 01:49:08;;;;;;;1.75;0.60;;;10.80;99.90;;;;;;5074761;28;20044;-74
2022/06/04 01:51:35;;;;;;;0.50;0.50;;;10.80;99.90;;;;;;5074662;28;20044;-73
2022/06/04 01:54:24;;;;;;;0.50;0.50;;;10.80;99.90;;;;;;5074898;28;20393;-73
2022/06/04 01:56:55;;;;;;;0.40;0.40;;;10.70;99.90;;;;;;5074494;28;20049;-72
2022/06/04 01:59:36;;;;;;;0.60;0.60;;;10.80;99.90;;;;;;5074693;28;20393;-76
2022/06/04 02:02:07;;;;;;;0.50;0.50;;;10.70;99.90;;;;;;5074389;28;20041;-76
2022/06/04 02:04:37;;;;;;;0.60;0.60;;;10.80;99.90;;;;;;5074871;28;20366;-76
2022/06/04 02:10:07;;;;;;;0.50;0.50;;;10.70;99.90;;;;;;5074329;28;20056;-73
2022/06/04 02:12:33;;;;;;;0.40;0.40;;;10.60;99.90;;;;;;5073978;28;20060;-77
2022/06/04 02:15:05;;;;;;;0.40;0.40;;;10.60;99.90;;;;;;5074093;28;20528;-75
2022/06/04 02:17:31;;;;;;;0.50;0.50;;;10.60;99.90;;;;;;5074075;28;20044;-74
2022/06/04 02:19:57;;;;;;;0.40;0.40;;;10.60;99.90;;;;;;5074176;28;20044;-73
2022/06/04 02:22:23;;;;;;;0.65;0.65;;;10.60;99.90;;;;;;5074057;28;20546;-74
2022/06/04 02:24:48;;;;;;;0.40;0.40;;;10.60;99.90;;;;;;5073990;28;20040;-72
2022/06/04 02:27:14;;;;;;;0.40;0.40;;;10.60;99.90;;;;;;5073505;28;20075;-72
2022/06/04 02:29:40;;;;;;;0.75;0.75;;;10.60;99.90;;;;;;5074319;28;20041;-73
2022/06/04 02:32:36;;;;;;;0.40;0.40;;;10.50;99.90;;;;;;5074292;28;20094;-77
2022/06/04 02:35:21;;;;;;;0.40;0.40;;;10.50;99.90;;;;;;5073976;28;20040;-75
2022/06/04 02:38:04;;;;;;;0.40;0.40;;;10.50;99.90;;;;;;5073763;28;20388;-75
2022/06/04 02:40:45;;;;;;;0.40;0.40;;;10.50;99.90;;;;;;5073600;28;20048;-75
2022/06/04 02:43:42;;;;;;;1.65;1.30;;;10.40;99.90;;;;;;5073991;28;20037;-75
2022/06/04 02:46:21;;;;;;;0.50;0.50;;;10.40;99.90;;;;;;5061431;28;20056;-77
2022/06/04 02:48:59;;;;;;;0.50;0.50;;;10.40;99.90;;;;;;5073967;28;20087;-75
2022/06/04 02:51:30;;;;;;;0.50;0.50;;;10.40;99.90;;;;;;5074031;28;20048;-73
2022/06/04 02:53:57;;;;;;;0.50;0.50;;;10.50;99.90;;;;;;5073786;28;20086;-76
2022/06/04 02:56:30;;;;;;;0.50;0.50;;;10.40;99.90;;;;;;5073550;28;20045;-77
2022/06/04 02:59:02;;;;;;;0.70;0.70;;;10.30;99.90;;;;;;5074136;28;20053;-75
2022/06/04 03:01:30;;;;;;;0.40;0.40;;;10.30;99.90;;;;;;5073711;28;20076;-76
2022/06/04 03:03:55;;;;;;;0.63;0.63;;;10.30;99.90;;;;;;5073867;28;20056;-75
2022/06/04 03:06:30;;;;;;;1.25;1.15;;;10.30;99.90;;;;;;5074485;28;20048;-74
2022/06/04 03:08:57;;;;;;;0.50;0.50;;;10.30;99.90;;;;;;5073829;28;20397;-75
2022/06/04 03:11:23;;;;;;;0.50;0.50;;;10.30;99.90;;;;;;5073320;28;20532;-73
2022/06/04 03:13:49;;;;;;;0.40;0.40;;;10.30;99.90;;;;;;5072546;28;20059;-74
2022/06/04 03:16:15;;;;;;;0.60;0.60;;;10.30;99.90;;;;;;5073827;28;20044;-76
2022/06/04 03:18:41;;;;;;;0.73;0.73;;;10.70;99.90;;;;;;5073184;28;20052;-75
2022/06/04 03:21:06;;;;;;;0.50;0.50;;;10.30;99.90;;;;;;5073442;28;20044;-72
2022/06/04 03:23:32;;;;;;;0.88;0.88;;;10.30;99.90;;;;;;5073383;28;20472;-75
2022/06/04 03:25:58;;;;;;;4.97;3.63;;;10.30;99.90;;;;;;5072398;28;20082;-77
2022/06/04 03:28:24;;;;;;;0.60;0.60;;;10.20;99.90;;;;;;5073209;28;20277;-72
2022/06/04 03:30:49;;;;;;;0.47;0.47;;;10.20;99.90;;;;;;5073389;28;20066;-75
2022/06/04 03:33:15;;;;;;;0.50;0.50;;;10.30;99.90;;;;;;5072410;28;20105;-76
2022/06/04 03:35:42;;;;;;;0.75;0.75;;;10.20;99.90;;;;;;5073341;28;20115;-71
2022/06/04 03:38:08;;;;;;;0.40;0.40;;;10.30;99.90;;;;;;5073310;28;20055;-73
2022/06/04 03:40:34;;;;;;;0.50;0.50;;;10.20;99.90;;;;;;5077558;28;20646;-74
2022/06/04 03:43:00;;;;;;;0.68;0.68;;;10.20;99.90;;;;;;5077084;28;20033;-74
2022/06/04 03:45:26;;;;;;;0.40;0.40;;;10.30;99.90;;;;;;5076910;28;20047;-75
2022/06/04 03:47:53;;;;;;;0.75;0.75;;;10.20;99.90;;;;;;5076778;28;20123;-74
2022/06/04 03:50:19;;;;;;;0.85;0.70;;;10.30;99.90;;;;;;5076984;28;20046;-72
2022/06/04 03:52:46;;;;;;;1.20;0.57;;;10.30;99.90;;;;;;5076725;28;20055;-72
2022/06/04 03:55:13;;;;;;;0.50;0.50;;;10.20;99.90;;;;;;5076735;28;20048;-73
2022/06/04 03:57:41;;;;;;;0.50;0.50;;;10.20;99.90;;;;;;5076660;28;20051;-76
2022/06/04 04:00:40;;;;;;;0.50;0.50;;;10.30;99.90;;;;;;5076934;28;20045;-75
2022/06/04 04:03:10;;;;;;;0.50;0.50;;;10.30;99.90;;;;;;5076681;28;20052;-73
2022/06/04 04:05:40;;;;;;;0.50;0.50;;;10.30;99.90;;;;;;5076373;28;20586;-72
2022/06/04 04:08:08;;;;;;;0.60;0.60;;;10.30;99.90;;;;;;5076645;28;20055;-74
2022/06/04 04:10:37;;;;;;;0.45;0.45;;;10.30;99.90;;;;;;5076148;28;20047;-74
2022/06/04 04:13:03;;;;;;;0.73;0.73;;;10.30;99.90;;;;;;5076200;28;20488;-71
2022/06/04 04:15:29;;;;;;;0.50;0.50;;;10.30;99.90;;;;;;5076472;28;20079;-73
2022/06/04 04:17:55;;;;;;;0.40;0.40;;;10.40;99.90;;;;;;5076305;28;20110;-72
2022/06/04 04:20:27;;;;;;;0.47;0.47;;;10.50;99.90;;;;;;5076802;28;20075;-75
2022/06/04 04:22:54;;;;;;;0.45;0.45;;;10.50;99.90;;;;;;5076280;28;20051;-73
2022/06/04 04:25:22;;;;;;;0.50;0.50;;;10.50;99.90;;;;;;5076378;28;20075;-72
2022/06/04 04:27:48;;;;;;;0.40;0.40;;;10.50;99.90;;;;;;5076313;28;20052;-75
2022/06/04 04:30:17;;;;;;;0.50;0.50;;;10.60;99.90;;;;;;5076164;28;20040;-74
2022/06/04 04:32:42;;;;;;;0.43;0.43;;;10.50;99.90;;;;;;5075993;28;20051;-73
2022/06/04 04:35:13;;;;;;;0.40;0.40;;;10.60;99.90;;;;;;5075953;28;20045;-75
2022/06/04 04:37:39;;;;;;;0.60;0.60;;;10.70;99.90;;;;;;5076115;28;20044;-74
2022/06/04 04:40:05;;;;;;;0.40;0.40;;;10.70;99.90;;;;;;5075892;28;20067;-75
2022/06/04 04:42:31;;;;;;;0.40;0.40;;;10.70;99.90;;;;;;5075897;28;20048;-73
2022/06/04 04:44:57;;;;;;;0.50;0.50;;;10.80;99.90;;;;;;5075849;28;20044;-74
2022/06/04 04:47:22;;;;;;;0.40;0.40;;;10.80;99.90;;;;;;5076197;28;20606;-73
2022/06/04 04:49:48;;;;;;;0.80;0.50;;;11.20;99.90;;;;;;5076071;28;20044;-76
2022/06/04 04:52:14;;;;;;;0.70;0.70;;;10.70;99.90;;;;;;5075536;28;20128;-73
2022/06/04 04:54:39;;;;;;;0.60;0.60;;;10.90;99.90;;;;;;5075666;28;20044;-73
2022/06/04 04:57:05;;;;;;;0.50;0.50;;;10.90;99.90;;;;;;5075806;28;20037;-77
2022/06/04 04:59:31;;;;;;;0.40;0.40;;;10.90;99.90;;;;;;5075641;28;20570;-74
2022/06/04 05:01:57;;;;;;;1.50;1.40;;;11.00;99.90;;;;;;5075529;28;20056;-75
2022/06/04 05:04:23;;;;;;;0.63;0.63;;;10.90;99.90;;;;;;5075309;28;20040;-73
2022/06/04 05:06:48;;;;;;;0.52;0.52;;;11.00;99.90;;;;;;5075514;28;20480;-74
2022/06/04 05:09:14;;;;;;;0.68;0.68;;;11.00;99.90;;;;;;5075771;28;20041;-76
2022/06/04 05:11:40;;;;;;;0.40;0.40;;;11.10;99.90;;;;;;5075274;28;20419;-76
2022/06/04 05:14:06;;;;;;;3.20;1.10;;;11.20;99.90;;;;;;5075064;28;20041;-73
2022/06/04 05:16:35;;;;;;;0.70;0.70;;;11.20;99.90;;;;;;5075237;28;20055;-75
2022/06/04 05:19:02;;;;;;;0.40;0.40;;;11.30;99.90;;;;;;5073956;28;20571;-75
2022/06/04 05:21:37;;;;;;;0.60;0.60;;;11.50;99.90;;;;;;5075152;28;20396;-72
2022/06/04 05:24:04;;;;;;;0.50;0.50;;;11.60;99.90;;;;;;5075132;28;20475;-72
2022/06/04 05:26:30;;;;;;;0.40;0.40;;;11.80;99.90;;;;;;5075003;28;20051;-76
2022/06/04 05:28:56;;;;;;;0.57;0.57;;;12.00;99.90;;;;;;5075057;28;20409;-73
2022/06/04 05:31:21;;;;;;;0.40;0.40;;;12.30;99.90;;;;;;5074990;28;20399;-74
2022/06/04 05:33:47;;;;;;;0.40;0.40;;;12.30;99.90;;;;;;5074854;28;20052;-76
2022/06/04 05:36:13;;;;;;;0.40;0.40;;;12.60;99.90;;;;;;5075351;28;20477;-73
2022/06/04 05:38:40;;;;;;;0.40;0.40;;;12.80;99.90;;;;;;5074750;28;20047;-75
2022/06/04 05:41:09;;;;;;;0.50;0.50;;;13.10;99.90;;;;;;5074738;28;20381;-77
2022/06/04 05:43:38;;;;;;;0.93;0.93;;;13.30;99.90;;;;;;5074587;28;20045;-75
2022/06/04 05:46:07;;;;;;;0.43;0.43;;;13.50;99.90;;;;;;5074693;28;20052;-75
2022/06/04 05:48:35;;;;;;;0.40;0.40;;;13.50;99.90;;;;;;5074370;28;20385;-75
2022/06/04 05:51:01;;;;;;;0.57;0.57;;;13.60;99.90;;;;;;5074569;28;20435;-75
2022/06/04 05:53:27;;;;;;;0.40;0.40;;;13.70;99.90;;;;;;5073403;28;20041;-74
2022/06/04 05:55:53;;;;;;;0.40;0.40;;;13.90;99.90;;;;;;5073983;28;20036;-74
2022/06/04 05:58:18;;;;;;;0.30;0.30;;;14.20;99.90;;;;;;5093915;28;20101;-76
2022/06/04 06:00:44;;;;;;;0.57;0.57;;;14.40;99.90;;;;;;5094567;28;20549;-74
2022/06/04 06:03:10;;;;;;;0.40;0.40;;;14.70;99.90;;;;;;5094175;28;20525;-75
2022/06/04 06:05:42;;;;;;;0.50;0.50;;;14.70;99.90;;;;;;5094593;28;20278;-75
2022/06/04 06:08:08;;;;;;;0.40;0.40;;;14.80;99.90;;;;;;5094621;28;20093;-76
2022/06/04 06:10:39;;;;;;;1.23;0.97;;;15.00;99.90;;;;;;5094552;28;20047;-78
2022/06/04 06:13:05;;;;;;;0.40;0.40;;;14.80;99.90;;;;;;5094371;28;20060;-77
2022/06/04 06:15:31;;;;;;;1.17;0.97;;;14.50;99.90;;;;;;5093336;28;20176;-77
2022/06/04 06:17:57;;;;;;;0.50;0.50;;;14.80;99.90;;;;;;5094294;28;20865;-76
2022/06/04 06:20:22;;;;;;;0.40;0.40;;;14.90;99.90;;;;;;5094480;28;20075;-75
2022/06/04 06:22:48;;;;;;;0.30;0.30;;;15.10;99.90;;;;;;5094295;28;20126;-77
2022/06/04 06:25:16;;;;;;;0.85;0.85;;;15.20;99.90;;;;;;5094246;28;20495;-78
2022/06/04 06:27:42;;;;;;;0.40;0.40;;;15.00;99.90;;;;;;5094158;28;20484;-75
2022/06/04 06:30:08;;;;;;;0.60;0.60;;;15.10;99.90;;;;;;5094201;28;20082;-75
2022/06/04 06:32:34;;;;;;;0.30;0.30;;;15.10;99.90;;;;;;5094120;28;20040;-73
2022/06/04 06:35:00;;;;;;;0.60;0.60;;;15.10;99.90;;;;;;5093928;28;20476;-74
2022/06/04 06:37:26;;;;;;;0.40;0.40;;;15.10;99.90;;;;;;5094219;28;20047;-78
2022/06/04 06:39:53;;;;;;;0.47;0.47;;;15.30;99.90;;;;;;5094171;28;20040;-76
2022/06/04 06:42:18;;;;;;;0.60;0.60;;;15.30;99.90;;;;;;5093913;28;20054;-75
2022/06/04 06:44:44;;;;;;;1.83;0.70;;;15.50;99.90;;;;;;5093079;28;20043;-81
2022/06/04 06:47:10;;;;;;;0.52;0.52;;;15.30;99.90;;;;;;5094080;28;20048;-75
2022/06/04 06:49:35;;;;;;;0.40;0.40;;;15.40;99.90;;;;;;5094014;28;20094;-74
2022/06/04 06:52:03;;;;;;;1.93;0.83;;;15.40;99.90;;;;;;5093979;28;20135;-76
2022/06/04 06:54:36;;;;;;;0.30;0.30;;;15.50;99.90;;;;;;5093915;28;20040;-75
2022/06/04 06:57:05;;;;;;;0.52;0.52;;;15.60;99.90;;;;;;5094006;28;20044;-78
2022/06/04 06:59:31;;;;;;;0.50;0.50;;;15.60;99.90;;;;;;5093870;28;20097;-75
2022/06/04 07:01:58;;;;;;;0.30;0.30;;;15.60;99.90;;;;;;5093572;28;20052;-75
2022/06/04 07:04:25;;;;;;;0.50;0.50;;;15.70;99.90;;;;;;5093919;28;20394;-73
2022/06/04 07:06:58;;;;;;;0.43;0.43;;;16.00;99.90;;;;;;5092900;28;20392;-75
2022/06/04 07:09:33;;;;;;;2.05;0.73;;;16.10;99.90;;;;;;5093798;28;20040;-77
2022/06/04 07:12:00;;;;;;;0.30;0.30;;;16.20;99.90;;;;;;5093612;28;20087;-73
2022/06/04 07:14:26;;;;;;;0.50;0.50;;;16.20;99.90;;;;;;5096135;28;20054;-74
2022/06/04 07:16:53;;;;;;;0.30;0.30;;;16.20;99.90;;;;;;5098022;28;20048;-71
2022/06/04 07:19:21;;;;;;;1.20;1.20;;;16.20;99.90;;;;;;5097903;28;20040;-73
2022/06/04 07:21:48;;;;;;;0.40;0.40;;;16.30;99.90;;;;;;5097455;28;20484;-76
2022/06/04 07:24:14;;;;;;;0.30;0.30;;;16.40;99.90;;;;;;5097771;28;20044;-78
2022/06/04 07:26:41;;;;;;;0.30;0.30;;;16.20;99.90;;;;;;5097618;28;20387;-75
2022/06/04 07:29:07;;;;;;;0.50;0.50;;;16.30;99.90;;;;;;5097565;28;20044;-77
2022/06/04 07:31:33;;;;;;;0.30;0.30;;;16.40;99.90;;;;;;5097620;28;20044;-74
2022/06/04 07:33:59;;;;;;;0.40;0.40;;;16.50;99.90;;;;;;5097182;28;20036;-74
2022/06/04 07:36:29;;;;;;;0.30;0.30;;;16.50;99.90;;;;;;5097469;28;20107;-76
2022/06/04 07:38:55;;;;;;;0.30;0.30;;;16.70;99.90;;;;;;5097437;28;20048;-76
2022/06/04 07:41:25;;;;;;;0.40;0.40;;;17.00;99.90;;;;;;5097439;28;20069;-76
2022/06/04 07:43:51;;;;;;;0.60;0.60;;;17.00;99.90;;;;;;5097364;28;20286;-76
2022/06/04 07:46:18;;;;;;;0.47;0.47;;;17.10;99.90;;;;;;5097328;28;20135;-76
2022/06/04 07:48:44;;;;;;;0.30;0.30;;;17.20;99.90;;;;;;5097258;28;20066;-76
2022/06/04 07:51:10;;;;;;;0.30;0.30;;;17.30;99.90;;;;;;5097188;28;20040;-74
2022/06/04 07:53:36;;;;;;;0.75;0.75;;;17.40;99.90;;;;;;5097217;28;20040;-77
2022/06/04 07:56:10;;;;;;;0.40;0.40;;;17.40;99.90;;;;;;5097217;28;20040;-75
2022/06/04 07:58:36;;;;;;;0.30;0.30;;;17.50;99.90;;;;;;5097478;28;20690;-76
2022/06/04 08:01:04;;;;;;;0.45;0.45;;;17.50;99.90;;;;;;5097090;28;20096;-76
2022/06/04 08:03:35;;;;;;;0.65;0.65;;;17.70;99.90;;;;;;5096988;28;20127;-74
2022/06/04 08:06:02;;;;;;;0.57;0.50;;;17.80;99.90;;;;;;5096978;28;20051;-76
2022/06/04 08:08:29;;;;;;;0.40;0.40;;;17.90;99.90;;;;;;5096841;28;20044;-74
2022/06/04 08:10:56;;;;;;;0.45;0.45;;;18.00;99.90;;;;;;5096751;28;20051;-75
2022/06/04 08:15:48;;;;;;;1.00;0.97;;;17.90;99.90;;;;;;5096623;28;20087;-76
2022/06/04 08:18:14;;;;;;;0.20;0.20;;;18.00;99.90;;;;;;5096695;28;20044;-76
2022/06/04 08:20:41;;;;;;;0.40;0.40;;;18.20;99.90;;;;;;5097090;28;20044;-74
2022/06/04 08:23:08;;;;;;;0.77;0.55;;;18.40;99.90;;;;;;5095279;28;20044;-75
2022/06/04 08:25:37;;;;;;;;;;;18.30;99.90;;;;;;5096459;28;20040;-74
2022/06/04 08:28:03;;;;;;;0.30;0.30;;;18.20;99.90;;;;;;5096583;28;19941;-77
2022/06/04 08:30:29;;;;;;;0.40;0.40;;;18.40;99.90;;;;;;5096453;28;20644;-75
2022/06/04 08:32:55;;;;;;;0.30;0.30;;;18.40;99.90;;;;;;5096020;28;20074;-74
2022/06/04 08:35:20;;;;;;;0.43;0.43;;;18.40;99.90;;;;;;5096322;28;20040;-74
2022/06/04 08:37:46;;;;;;;0.53;0.53;;;18.40;99.90;;;;;;5096239;28;20184;-76
2022/06/04 08:40:45;;;;;;;0.30;0.30;;;18.50;99.90;;;;;;5096277;28;20040;-73
2022/06/04 08:43:33;;;;;;;0.52;0.52;;;18.60;99.90;;;;;;5081202;28;20051;-76
2022/06/04 08:46:01;;;;;;;0.40;0.40;;;18.70;99.90;;;;;;5095940;28;20040;-75
2022/06/04 08:48:34;;;;;;;0.30;0.30;;;18.90;99.90;;;;;;5096055;28;20048;-76
2022/06/04 08:51:03;;;;;;;0.30;0.30;;;18.70;99.90;;;;;;5096293;28;20055;-73
2022/06/04 08:53:30;;;;;;;0.45;0.45;;;18.80;99.90;;;;;;5095791;28;20044;-77
2022/06/04 08:59:14;;;;;;;0.30;0.30;;;18.90;99.90;;;;;;5096258;28;20048;-75
2022/06/04 09:01:54;;;;;;;0.30;0.30;;;19.00;99.90;;;;;;5095581;28;20492;-72
2022/06/04 09:04:45;;;;;;;0.50;0.50;;;19.10;99.90;;;;;;5095686;28;20125;-74
2022/06/04 09:07:34;;;;;;;0.30;0.30;;;19.20;99.90;;;;;;5096143;28;20055;-74
2022/06/04 09:10:15;;;;;;;0.40;0.40;;;19.30;99.90;;;;;;5095868;28;20044;-74
2022/06/04 09:12:44;;;;;;;0.40;0.40;;;19.10;99.90;;;;;;5095539;28;20570;-76
2022/06/04 09:15:12;;;;;;;1.02;0.70;;;19.10;99.90;;;;;;5095666;28;20159;-75
2022/06/04 09:17:54;;;;;;;0.45;0.45;;;19.10;99.90;;;;;;5095890;28;20441;-74
2022/06/04 09:20:29;;;;;;;0.50;0.50;;;19.10;99.90;;;;;;5095305;28;20051;-74
2022/06/04 09:23:06;;;;;;;0.40;0.40;;;19.20;99.90;;;;;;5095527;28;20051;-72
2022/06/04 09:25:45;;;;;;;0.60;0.60;;;19.30;99.90;;;;;;5096053;28;20047;-78
2022/06/04 09:28:16;;;;;;;0.30;0.30;;;19.40;99.90;;;;;;5095430;28;20178;-78
2022/06/04 09:30:55;;;;;;;0.30;0.30;;;19.80;99.90;;;;;;5095344;28;20058;-76
2022/06/04 09:33:54;;;;;;;1.55;0.82;;;20.10;99.90;;;;;;5095195;28;20059;-77
2022/06/04 09:36:30;;;;;;;0.32;0.32;;;20.20;99.90;;;;;;5094731;28;20044;-75
2022/06/04 09:39:02;;;;;;;0.30;0.30;;;19.80;99.90;;;;;;5095080;28;20508;-73
2022/06/04 09:41:31;;;;;;;0.30;0.30;;;19.90;99.90;;;;;;5094883;28;20127;-73
2022/06/04 09:44:05;;;;;;;0.30;0.30;;;20.10;99.90;;;;;;5094979;28;20408;-73
2022/06/04 09:46:32;;;;;;;0.45;0.45;;;20.10;99.90;;;;;;5095431;28;20048;-73
2022/06/04 09:48:59;;;;;;;0.50;0.50;;;20.00;99.90;;;;;;5094838;28;20059;-74
2022/06/04 09:51:28;;;;;;;0.40;0.40;;;20.20;99.90;;;;;;5094727;28;20488;-75
2022/06/04 09:54:02;;;;;;;0.43;0.38;;;20.40;99.90;;;;;;5094771;28;20044;-76
2022/06/04 09:56:36;;;;;;;0.52;0.43;;;20.40;99.90;;;;;;5094785;28;20072;-77
2022/06/04 09:59:18;;;;;;;0.20;0.20;;;20.30;99.90;;;;;;5094673;28;20055;-77
2022/06/04 10:02:02;;;;;;;0.35;0.35;;;20.40;99.90;;;;;;5094738;28;20047;-76
2022/06/04 10:04:40;;;;;;;0.40;0.40;;;20.50;99.90;;;;;;5094465;28;20043;-74
2022/06/04 10:07:09;;;;;;;0.30;0.30;;;20.50;99.90;;;;;;5094491;28;20073;-77
2022/06/04 10:09:55;;;;;;;0.30;0.30;;;20.40;99.90;;;;;;5094859;28;20481;-75
2022/06/04 10:13:42;;;;;;;0.30;0.30;;;20.30;99.90;;;;;;5094470;28;20056;-76
2022/06/04 10:15:26;;;;;;;0.30;0.30;;;20.40;99.90;;;;;;5094351;28;20051;-75
2022/06/04 10:18:02;;;;;;;0.30;0.30;;;20.60;99.90;;;;;;5094893;28;20047;-75
2022/06/04 10:20:28;;;;;;;0.70;0.70;;;20.80;99.90;;;;;;5093832;28;20522;-76
2022/06/04 10:22:54;;;;;;;0.30;0.30;;;20.70;99.90;;;;;;5094029;28;20086;-76
2022/06/04 10:25:28;;;;;;;0.47;0.47;;;20.50;99.90;;;;;;5094311;28;20111;-75
2022/06/04 10:28:04;;;;;;;0.40;0.40;;;20.30;99.90;;;;;;5094212;28;20048;-74
2022/06/04 10:30:38;;;;;;;0.40;0.40;;;20.30;99.90;;;;;;5094734;28;20048;-76
2022/06/04 10:33:14;;;;;;;0.30;0.30;;;20.50;99.90;;;;;;5094015;28;20090;-75
2022/06/04 10:35:56;;;;;;;0.75;0.50;;;20.60;99.90;;;;;;5094377;28;20040;-78
2022/06/04 10:38:38;;;;;;;0.20;0.20;;;20.80;99.90;;;;;;5094147;28;20093;-75
2022/06/04 10:41:27;;;;;;;0.30;0.30;;;21.10;99.90;;;;;;5094431;28;20093;-75
2022/06/04 10:44:46;;;;;;;1.20;0.40;;;21.10;99.90;;;;;;5094005;28;20044;-76
2022/06/04 10:47:35;;;;;;;0.30;0.30;;;21.10;99.90;;;;;;5012057;28;20041;-76
2022/06/04 10:50:21;;;;;;;0.28;0.28;;;21.10;99.90;;;;;;5088445;28;20052;-78
2022/06/04 10:53:04;;;;;;;0.40;0.40;;;21.20;99.90;;;;;;5093929;28;20055;-76
2022/06/04 10:55:41;;;;;;;0.38;0.38;;;21.00;99.90;;;;;;5094519;28;20518;-76
2022/06/04 10:58:25;;;;;;;0.40;0.35;;;21.10;99.90;;;;;;5094361;28;20388;-77
2022/06/04 11:01:32;;;;;;;0.30;0.30;;;21.20;99.90;;;;;;5094114;28;20123;-76
2022/06/04 11:04:07;;;;;;;0.60;0.60;;;21.40;99.90;;;;;;5093908;28;20044;-75
2022/06/04 11:06:45;;;;;;;0.45;0.45;;;21.60;99.90;;;;;;5094048;28;20052;-72
2022/06/04 11:09:16;;;;;;;0.30;0.30;;;21.90;99.90;;;;;;5094011;28;20044;-73
2022/06/04 11:11:56;;;;;;;0.70;0.70;;;22.00;99.70;;;;;;5093636;28;20095;-75
2022/06/04 11:14:44;;;;;;;0.45;0.45;;;22.20;99.90;;;;;;5093709;28;20044;-76
2022/06/04 11:17:18;;;;;;;0.50;0.50;;;22.20;98.70;;;;;;5093846;28;20048;-77
2022/06/04 11:20:10;;;;;;;1.45;1.10;;;22.30;99.50;;;;;;5093714;28;20083;-75
2022/06/04 11:22:39;;;;;;;0.38;0.38;;;22.30;98.90;;;;;;5094104;28;20438;-73
2022/06/04 11:25:27;;;;;;;0.32;0.32;;;22.30;99.60;;;;;;5093693;28;20090;-76
2022/06/04 11:28:07;;;;;;;0.60;0.60;;;22.50;98.80;;;;;;5094093;28;20084;-73
2022/06/04 11:30:54;;;;;;;1.15;0.60;;;22.70;99.90;;;;;;5093764;28;20095;-72
2022/06/04 11:33:51;;;;;;;0.40;0.40;;;22.70;97.50;;;;;;5093881;28;20079;-74
2022/06/04 11:36:39;;;;;;;0.50;0.50;;;22.60;96.70;;;;;;5093509;28;20101;-76
2022/06/04 11:39:17;;;;;;;0.30;0.30;;;22.60;96.50;;;;;;5053798;28;20048;-76
2022/06/04 11:42:04;;;;;;;;;;;22.60;97.10;;;;;;5094256;28;20442;-76
2022/06/04 11:45:17;;;;;;;4.03;0.77;;;22.60;97.70;;;;;;5093310;28;20068;-77
2022/06/04 11:47:55;;;;;;;0.20;0.20;;;22.50;94.60;;;;;;5011572;28;20144;-75
2022/06/04 11:50:48;;;;;;;0.65;0.65;;;22.50;97.10;;;;;;5011611;28;20425;-77
2022/06/04 11:53:50;;;;;;;0.35;0.35;;;22.50;96.20;;;;;;5071380;28;20489;-77
2022/06/04 11:56:28;;;;;;;0.30;0.30;;;22.60;96.40;;;;;;5051082;28;20056;-77
2022/06/04 11:59:17;;;;;;;0.73;0.45;;;22.60;96.30;;;;;;5093017;28;20529;-75
2022/06/04 12:01:58;;;;;;;0.50;0.50;;;22.70;96.10;;;;;;5097070;28;20399;-78
2022/06/04 12:04:47;;;;;;;0.40;0.40;;;22.80;97.00;;;;;;5096699;28;20071;-73
2022/06/04 12:07:30;;;;;;;0.30;0.30;;;22.90;95.20;;;;;;5096882;28;20040;-73
2022/06/04 12:10:01;;;;;;;0.30;0.30;;;23.20;96.30;;;;;;5096835;28;20399;-75
2022/06/04 12:12:35;;;;;;;0.30;0.30;;;23.20;94.40;;;;;;5095432;28;20048;-75
2022/06/04 12:15:21;;;;;;;0.68;0.68;;;23.30;94.90;;;;;;5097152;28;20044;-74
2022/06/04 12:17:52;;;;;;;0.30;0.30;;;23.10;95.10;;;;;;5095949;28;20048;-74
2022/06/04 12:26:34;;;;;;;1.27;0.57;;;22.50;97.20;;;;;;5096458;28;20135;-72
2022/06/04 12:29:01;;;;;;;0.30;0.30;;;22.40;96.00;;;;;;5096533;28;20131;-74
2022/06/04 12:31:34;;;;;;;0.50;0.50;;;22.40;96.20;;;;;;5096349;28;20395;-76
2022/06/04 12:34:02;;;;;;;0.35;0.35;;;22.50;95.60;;;;;;5096023;28;20449;-76
2022/06/04 12:36:37;;;;;;;0.20;0.20;;;22.80;95.20;;;;;;5096271;28;20392;-77
2022/06/04 12:39:26;;;;;;;0.40;0.40;;;23.00;95.70;;;;;;5096164;28;20051;-77
2022/06/04 12:41:55;;;;;;;0.30;0.30;;;23.10;95.80;;;;;;5096261;28;20044;-77
2022/06/04 12:44:22;;;;;;;0.40;0.32;;;23.30;95.90;;;;;;5096197;28;20044;-76
2022/06/04 12:46:49;;;;;;;0.40;0.40;;;23.60;95.60;;;;;;5096271;28;20059;-77
2022/06/04 12:49:21;;;;;;;0.30;0.30;;;23.70;93.60;;;;;;5096014;28;20048;-74
2022/06/04 12:51:49;;;;;;;0.30;0.30;;;23.70;94.50;;;;;;5096073;28;20131;-76
2022/06/04 12:54:17;;;;;;;0.30;0.30;;;23.60;94.00;;;;;;5095813;28;20504;-74
2022/06/04 12:56:50;;;;;;;0.30;0.30;;;23.80;93.90;;;;;;5096373;28;20040;-74
2022/06/04 12:59:40;;;;;;;0.35;0.35;;;24.00;94.90;;;;;;5096400;28;20361;-75
2022/06/04 13:02:33;;;;;;;0.30;0.30;;;24.10;92.50;;;;;;5096104;28;20057;-74
2022/06/04 13:05:21;;;;;;;0.60;0.60;;;24.20;91.60;;;;;;5095916;28;20048;-75
2022/06/04 13:08:11;;;;;;;0.40;0.40;;;24.30;92.30;;;;;;5095636;28;20507;-75
2022/06/04 13:10:53;;;;;;;0.30;0.30;;;24.40;93.40;;;;;;5095107;28;20071;-74
2022/06/04 13:13:25;;;;;;;0.40;0.40;;;24.20;94.20;;;;;;5095430;28;20058;-74
2022/06/04 13:15:52;;;;;;;0.20;0.20;;;24.20;94.60;;;;;;5096041;28;20087;-76
2022/06/04 13:18:28;;;;;;;0.20;0.20;;;24.20;92.20;;;;;;5095462;28;20040;-75
2022/06/04 13:20:58;;;;;;;0.30;0.30;;;24.20;91.80;;;;;;5095568;28;20160;-76
2022/06/04 13:23:31;;;;;;;0.30;0.30;;;24.30;91.80;;;;;;5095425;28;20044;-74
2022/06/04 13:26:01;;;;;;;0.40;0.40;;;24.50;92.40;;;;;;5095562;28;20567;-76
2022/06/04 13:28:37;;;;;;;0.52;0.52;;;24.70;90.70;;;;;;5095272;28;20134;-75
2022/06/04 13:31:05;;;;;;;0.35;0.35;;;24.70;90.00;;;;;;5095289;28;20044;-75
2022/06/04 13:33:36;;;;;;;0.50;0.50;;;24.50;89.70;;;;;;5095091;28;20044;-77
2022/06/04 13:36:03;;;;;;;0.40;0.40;;;24.30;91.10;;;;;;5095209;28;20044;-75
2022/06/04 13:38:35;;;;;;;0.40;0.30;;;24.10;92.10;;;;;;5094994;28;20476;-75